sensor_id;sensor_type;location;lat;lon;timestamp;P1;durP1;ratioP1;P2;durP2;ratioP2
16177;SDS011;8195;51.220;9.746;2023-11-19T00:01:35;5.87;;;5.30;;
16177;SDS011;8195;51.220;9.746;2023-11-19T00:05:55;6.10;;;5.60;;
16177;SDS011;8195;51.220;9.746;2023-11-19T00:10:16;4.90;;;4.50;;
16177;SDS011;8195;51.220;9.746;2023-11-19T00:14:36;4.70;;;4.37;;
16177;SDS011;8195;51.220;9.746;2023-11-19T00:18:57;4.67;;;4.27;;
16177;SDS011;8195;51.220;9.746;2023-11-19T00:23:17;78.53;;;15.47;;
16177;SDS011;8195;51.220;9.746;2023-11-19T00:27:37;18.83;;;6.60;;
16177;SDS011;8195;51.220;9.746;2023-11-19T00:31:58;37.97;;;8.67;;
16177;SDS011;8195;51.220;9.746;2023-11-19T00:36:18;149.30;;;23.37;;
16177;SDS011;8195;51.220;9.746;2023-11-19T00:40:38;248.40;;;33.80;;
16177;SDS011;8195;51.220;9.746;2023-11-19T00:44:59;15.80;;;6.17;;
16177;SDS011;8195;51.220;9.746;2023-11-19T00:49:19;84.40;;;16.37;;
16177;SDS011;8195;51.220;9.746;2023-11-19T00:53:39;58.30;;;12.20;;
16177;SDS011;8195;51.220;9.746;2023-11-19T00:58:00;418.60;;;53.37;;
16177;SDS011;8195;51.220;9.746;2023-11-19T01:02:20;63.07;;;11.87;;
16177;SDS011;8195;51.220;9.746;2023-11-19T01:06:40;296.87;;;37.97;;
16177;SDS011;8195;51.220;9.746;2023-11-19T01:11:01;231.93;;;31.57;;
16177;SDS011;8195;51.220;9.746;2023-11-19T01:15:21;240.73;;;31.73;;
16177;SDS011;8195;51.220;9.746;2023-11-19T01:19:42;228.80;;;32.37;;
16177;SDS011;8195;51.220;9.746;2023-11-19T01:24:02;43.27;;;9.13;;
16177;SDS011;8195;51.220;9.746;2023-11-19T01:28:23;8.97;;;5.67;;
16177;SDS011;8195;51.220;9.746;2023-11-19T01:32:43;28.57;;;7.30;;
16177;SDS011;8195;51.220;9.746;2023-11-19T01:37:03;16.97;;;6.40;;
16177;SDS011;8195;51.220;9.746;2023-11-19T01:41:24;214.90;;;31.40;;
16177;SDS011;8195;51.220;9.746;2023-11-19T01:45:44;209.93;;;32.90;;
16177;SDS011;8195;51.220;9.746;2023-11-19T01:50:05;393.27;;;54.63;;
16177;SDS011;8195;51.220;9.746;2023-11-19T01:54:27;284.60;;;39.53;;
16177;SDS011;8195;51.220;9.746;2023-11-19T01:58:48;93.87;;;17.07;;
16177;SDS011;8195;51.220;9.746;2023-11-19T02:03:08;335.43;;;46.77;;
16177;SDS011;8195;51.220;9.746;2023-11-19T02:07:29;120.10;;;20.37;;
16177;SDS011;8195;51.220;9.746;2023-11-19T02:11:49;160.50;;;25.90;;
16177;SDS011;8195;51.220;9.746;2023-11-19T02:16:10;243.30;;;32.77;;
16177;SDS011;8195;51.220;9.746;2023-11-19T02:20:30;353.93;;;44.13;;
16177;SDS011;8195;51.220;9.746;2023-11-19T02:24:51;44.00;;;10.73;;
16177;SDS011;8195;51.220;9.746;2023-11-19T02:29:15;110.83;;;19.23;;
16177;SDS011;8195;51.220;9.746;2023-11-19T02:33:36;231.87;;;27.50;;
16177;SDS011;8195;51.220;9.746;2023-11-19T02:37:59;11.73;;;6.37;;
16177;SDS011;8195;51.220;9.746;2023-11-19T02:42:19;193.63;;;24.43;;
16177;SDS011;8195;51.220;9.746;2023-11-19T02:46:39;17.23;;;7.50;;
16177;SDS011;8195;51.220;9.746;2023-11-19T02:51:00;52.77;;;11.43;;
16177;SDS011;8195;51.220;9.746;2023-11-19T02:55:20;341.63;;;34.77;;
16177;SDS011;8195;51.220;9.746;2023-11-19T02:59:40;342.53;;;36.73;;
16177;SDS011;8195;51.220;9.746;2023-11-19T03:04:01;201.13;;;24.33;;
16177;SDS011;8195;51.220;9.746;2023-11-19T03:08:21;11.40;;;6.13;;
16177;SDS011;8195;51.220;9.746;2023-11-19T03:12:42;68.57;;;13.47;;
16177;SDS011;8195;51.220;9.746;2023-11-19T03:17:03;22.93;;;8.33;;
16177;SDS011;8195;51.220;9.746;2023-11-19T03:21:29;7.37;;;6.63;;
16177;SDS011;8195;51.220;9.746;2023-11-19T03:25:50;17.90;;;7.67;;
16177;SDS011;8195;51.220;9.746;2023-11-19T03:30:10;30.87;;;10.80;;
16177;SDS011;8195;51.220;9.746;2023-11-19T03:34:31;57.93;;;14.80;;
16177;SDS011;8195;51.220;9.746;2023-11-19T03:38:51;8.30;;;6.17;;
16177;SDS011;8195;51.220;9.746;2023-11-19T03:43:11;6.07;;;5.47;;
16177;SDS011;8195;51.220;9.746;2023-11-19T03:47:31;6.80;;;6.20;;
16177;SDS011;8195;51.220;9.746;2023-11-19T03:51:52;3.83;;;3.53;;
16177;SDS011;8195;51.220;9.746;2023-11-19T03:56:12;3.70;;;3.40;;
16177;SDS011;8195;51.220;9.746;2023-11-19T04:00:33;19.03;;;7.43;;
16177;SDS011;8195;51.220;9.746;2023-11-19T04:04:53;109.57;;;19.73;;
16177;SDS011;8195;51.220;9.746;2023-11-19T04:09:14;411.87;;;54.13;;
16177;SDS011;8195;51.220;9.746;2023-11-19T04:13:35;277.23;;;40.43;;
16177;SDS011;8195;51.220;9.746;2023-11-19T04:17:55;154.20;;;27.77;;
16177;SDS011;8195;51.220;9.746;2023-11-19T04:22:15;35.83;;;12.10;;
16177;SDS011;8195;51.220;9.746;2023-11-19T04:26:36;34.73;;;11.83;;
16177;SDS011;8195;51.220;9.746;2023-11-19T04:30:56;8.90;;;8.00;;
16177;SDS011;8195;51.220;9.746;2023-11-19T04:35:16;8.53;;;7.63;;
16177;SDS011;8195;51.220;9.746;2023-11-19T04:39:37;9.57;;;7.80;;
16177;SDS011;8195;51.220;9.746;2023-11-19T04:43:57;7.93;;;7.13;;
16177;SDS011;8195;51.220;9.746;2023-11-19T04:48:17;9.17;;;8.27;;
16177;SDS011;8195;51.220;9.746;2023-11-19T04:52:38;7.93;;;7.13;;
16177;SDS011;8195;51.220;9.746;2023-11-19T04:56:58;9.27;;;8.37;;
16177;SDS011;8195;51.220;9.746;2023-11-19T05:01:19;11.97;;;8.97;;
16177;SDS011;8195;51.220;9.746;2023-11-19T05:05:39;12.27;;;9.13;;
16177;SDS011;8195;51.220;9.746;2023-11-19T05:09:59;179.80;;;31.33;;
16177;SDS011;8195;51.220;9.746;2023-11-19T05:14:19;34.83;;;13.00;;
16177;SDS011;8195;51.220;9.746;2023-11-19T05:18:40;76.73;;;18.27;;
16177;SDS011;8195;51.220;9.746;2023-11-19T05:23:00;30.20;;;12.70;;
16177;SDS011;8195;51.220;9.746;2023-11-19T05:27:21;163.60;;;29.80;;
16177;SDS011;8195;51.220;9.746;2023-11-19T05:31:41;19.90;;;10.73;;
16177;SDS011;8195;51.220;9.746;2023-11-19T05:36:01;12.70;;;10.33;;
16177;SDS011;8195;51.220;9.746;2023-11-19T05:40:22;11.03;;;9.67;;
16177;SDS011;8195;51.220;9.746;2023-11-19T05:44:42;12.17;;;10.50;;
16177;SDS011;8195;51.220;9.746;2023-11-19T05:49:03;11.57;;;10.37;;
16177;SDS011;8195;51.220;9.746;2023-11-19T05:53:23;13.27;;;11.83;;
16177;SDS011;8195;51.220;9.746;2023-11-19T05:57:43;13.40;;;11.80;;
16177;SDS011;8195;51.220;9.746;2023-11-19T06:02:04;13.27;;;10.87;;
16177;SDS011;8195;51.220;9.746;2023-11-19T06:06:24;16.27;;;12.17;;
16177;SDS011;8195;51.220;9.746;2023-11-19T06:10:44;14.87;;;12.00;;
16177;SDS011;8195;51.220;9.746;2023-11-19T06:15:05;13.60;;;11.37;;
16177;SDS011;8195;51.220;9.746;2023-11-19T06:19:26;14.70;;;11.60;;
16177;SDS011;8195;51.220;9.746;2023-11-19T06:23:46;15.13;;;12.43;;
16177;SDS011;8195;51.220;9.746;2023-11-19T06:28:06;12.73;;;10.83;;
16177;SDS011;8195;51.220;9.746;2023-11-19T06:32:26;14.13;;;12.07;;
16177;SDS011;8195;51.220;9.746;2023-11-19T06:36:47;18.73;;;13.70;;
16177;SDS011;8195;51.220;9.746;2023-11-19T06:41:07;17.67;;;15.70;;
16177;SDS011;8195;51.220;9.746;2023-11-19T06:45:28;21.63;;;18.07;;
16177;SDS011;8195;51.220;9.746;2023-11-19T06:49:48;17.87;;;15.10;;
16177;SDS011;8195;51.220;9.746;2023-11-19T06:54:09;19.73;;;16.07;;
16177;SDS011;8195;51.220;9.746;2023-11-19T06:58:29;21.70;;;16.13;;
16177;SDS011;8195;51.220;9.746;2023-11-19T07:02:49;18.07;;;13.20;;
16177;SDS011;8195;51.220;9.746;2023-11-19T07:07:10;15.50;;;12.40;;
16177;SDS011;8195;51.220;9.746;2023-11-19T07:11:30;14.17;;;11.87;;
16177;SDS011;8195;51.220;9.746;2023-11-19T07:15:50;17.40;;;15.00;;
16177;SDS011;8195;51.220;9.746;2023-11-19T07:20:11;15.37;;;12.47;;
16177;SDS011;8195;51.220;9.746;2023-11-19T07:24:31;14.33;;;12.30;;
16177;SDS011;8195;51.220;9.746;2023-11-19T07:28:51;18.50;;;12.37;;
16177;SDS011;8195;51.220;9.746;2023-11-19T07:33:12;16.27;;;11.63;;
16177;SDS011;8195;51.220;9.746;2023-11-19T07:37:32;15.47;;;12.30;;
16177;SDS011;8195;51.220;9.746;2023-11-19T07:41:52;17.27;;;12.07;;
16177;SDS011;8195;51.220;9.746;2023-11-19T07:46:13;15.33;;;11.03;;
16177;SDS011;8195;51.220;9.746;2023-11-19T07:50:33;20.47;;;12.97;;
16177;SDS011;8195;51.220;9.746;2023-11-19T07:54:55;15.57;;;11.20;;
16177;SDS011;8195;51.220;9.746;2023-11-19T07:59:15;15.43;;;9.83;;
16177;SDS011;8195;51.220;9.746;2023-11-19T08:03:35;17.33;;;13.60;;
16177;SDS011;8195;51.220;9.746;2023-11-19T08:07:56;13.27;;;10.07;;
16177;SDS011;8195;51.220;9.746;2023-11-19T08:12:16;13.00;;;8.27;;
16177;SDS011;8195;51.220;9.746;2023-11-19T08:16:36;14.50;;;11.63;;
16177;SDS011;8195;51.220;9.746;2023-11-19T08:20:59;10.83;;;7.93;;
16177;SDS011;8195;51.220;9.746;2023-11-19T08:25:19;18.10;;;8.13;;
16177;SDS011;8195;51.220;9.746;2023-11-19T08:29:39;9.73;;;5.97;;
16177;SDS011;8195;51.220;9.746;2023-11-19T08:34:00;8.30;;;4.60;;
16177;SDS011;8195;51.220;9.746;2023-11-19T08:38:20;8.60;;;5.00;;
16177;SDS011;8195;51.220;9.746;2023-11-19T08:42:41;10.53;;;4.30;;
16177;SDS011;8195;51.220;9.746;2023-11-19T08:47:01;6.57;;;4.30;;
16177;SDS011;8195;51.220;9.746;2023-11-19T08:51:21;7.27;;;4.37;;
16177;SDS011;8195;51.220;9.746;2023-11-19T08:55:43;8.50;;;5.00;;
16177;SDS011;8195;51.220;9.746;2023-11-19T09:00:03;10.03;;;4.70;;
16177;SDS011;8195;51.220;9.746;2023-11-19T09:04:24;8.40;;;3.63;;
16177;SDS011;8195;51.220;9.746;2023-11-19T09:08:44;7.33;;;3.40;;
16177;SDS011;8195;51.220;9.746;2023-11-19T09:13:04;6.53;;;3.40;;
16177;SDS011;8195;51.220;9.746;2023-11-19T09:17:25;10.27;;;3.97;;
16177;SDS011;8195;51.220;9.746;2023-11-19T09:21:45;8.83;;;3.63;;
16177;SDS011;8195;51.220;9.746;2023-11-19T09:26:05;7.97;;;3.20;;
16177;SDS011;8195;51.220;9.746;2023-11-19T09:30:26;8.20;;;3.30;;
16177;SDS011;8195;51.220;9.746;2023-11-19T09:34:46;7.50;;;3.60;;
16177;SDS011;8195;51.220;9.746;2023-11-19T09:39:06;9.20;;;4.00;;
16177;SDS011;8195;51.220;9.746;2023-11-19T09:43:27;8.40;;;3.63;;
16177;SDS011;8195;51.220;9.746;2023-11-19T09:47:47;7.60;;;3.40;;
16177;SDS011;8195;51.220;9.746;2023-11-19T09:52:07;8.47;;;3.53;;
16177;SDS011;8195;51.220;9.746;2023-11-19T09:56:28;8.40;;;3.50;;
16177;SDS011;8195;51.220;9.746;2023-11-19T10:00:49;12.67;;;3.60;;
16177;SDS011;8195;51.220;9.746;2023-11-19T10:05:10;7.93;;;3.53;;
16177;SDS011;8195;51.220;9.746;2023-11-19T10:09:30;12.43;;;3.63;;
16177;SDS011;8195;51.220;9.746;2023-11-19T10:13:51;10.30;;;3.80;;
16177;SDS011;8195;51.220;9.746;2023-11-19T10:18:14;8.83;;;3.67;;
16177;SDS011;8195;51.220;9.746;2023-11-19T10:22:36;11.77;;;4.07;;
16177;SDS011;8195;51.220;9.746;2023-11-19T10:26:57;9.43;;;3.70;;
16177;SDS011;8195;51.220;9.746;2023-11-19T10:31:18;8.00;;;3.40;;
16177;SDS011;8195;51.220;9.746;2023-11-19T10:35:55;6.97;;;3.77;;
16177;SDS011;8195;51.220;9.746;2023-11-19T10:40:18;9.90;;;3.50;;
16177;SDS011;8195;51.220;9.746;2023-11-19T10:44:38;8.43;;;3.53;;
16177;SDS011;8195;51.220;9.746;2023-11-19T10:48:58;7.57;;;2.97;;
16177;SDS011;8195;51.220;9.746;2023-11-19T10:53:19;8.30;;;3.20;;
16177;SDS011;8195;51.220;9.746;2023-11-19T10:57:39;7.80;;;3.10;;
16177;SDS011;8195;51.220;9.746;2023-11-19T11:02:03;10.20;;;4.13;;
16177;SDS011;8195;51.220;9.746;2023-11-19T11:06:27;8.93;;;3.37;;
16177;SDS011;8195;51.220;9.746;2023-11-19T11:10:54;9.03;;;3.90;;
16177;SDS011;8195;51.220;9.746;2023-11-19T11:15:15;9.00;;;3.43;;
16177;SDS011;8195;51.220;9.746;2023-11-19T11:19:37;8.20;;;3.27;;
16177;SDS011;8195;51.220;9.746;2023-11-19T11:28:41;7.60;;;3.30;;
16177;SDS011;8195;51.220;9.746;2023-11-19T11:37:45;7.57;;;3.63;;
16177;SDS011;8195;51.220;9.746;2023-11-19T11:50:57;10.27;;;3.90;;
16177;SDS011;8195;51.220;9.746;2023-11-19T11:55:17;12.17;;;3.93;;
16177;SDS011;8195;51.220;9.746;2023-11-19T12:04:04;12.50;;;4.37;;
16177;SDS011;8195;51.220;9.746;2023-11-19T12:08:28;9.60;;;4.37;;
16177;SDS011;8195;51.220;9.746;2023-11-19T12:12:49;10.53;;;4.10;;
16177;SDS011;8195;51.220;9.746;2023-11-19T12:21:54;10.70;;;4.77;;
16177;SDS011;8195;51.220;9.746;2023-11-19T12:26:29;9.23;;;4.27;;
16177;SDS011;8195;51.220;9.746;2023-11-19T12:30:52;7.80;;;4.10;;
16177;SDS011;8195;51.220;9.746;2023-11-19T12:35:12;9.70;;;4.50;;
16177;SDS011;8195;51.220;9.746;2023-11-19T12:39:33;9.53;;;4.27;;
16177;SDS011;8195;51.220;9.746;2023-11-19T12:43:53;14.07;;;4.40;;
16177;SDS011;8195;51.220;9.746;2023-11-19T12:48:13;11.37;;;4.20;;
16177;SDS011;8195;51.220;9.746;2023-11-19T12:52:34;7.37;;;3.60;;
16177;SDS011;8195;51.220;9.746;2023-11-19T12:56:55;11.83;;;4.67;;
16177;SDS011;8195;51.220;9.746;2023-11-19T13:01:19;16.67;;;4.53;;
16177;SDS011;8195;51.220;9.746;2023-11-19T13:05:40;12.90;;;4.30;;
16177;SDS011;8195;51.220;9.746;2023-11-19T13:10:01;12.00;;;3.90;;
16177;SDS011;8195;51.220;9.746;2023-11-19T13:14:22;10.17;;;3.97;;
16177;SDS011;8195;51.220;9.746;2023-11-19T13:18:43;10.53;;;5.40;;
16177;SDS011;8195;51.220;9.746;2023-11-19T13:23:04;13.70;;;5.60;;
16177;SDS011;8195;51.220;9.746;2023-11-19T13:27:26;9.67;;;4.73;;
16177;SDS011;8195;51.220;9.746;2023-11-19T13:31:46;11.93;;;6.53;;
16177;SDS011;8195;51.220;9.746;2023-11-19T13:36:07;16.30;;;5.27;;
16177;SDS011;8195;51.220;9.746;2023-11-19T13:40:27;11.03;;;4.60;;
16177;SDS011;8195;51.220;9.746;2023-11-19T13:44:47;10.97;;;5.97;;
16177;SDS011;8195;51.220;9.746;2023-11-19T13:49:08;16.37;;;5.13;;
16177;SDS011;8195;51.220;9.746;2023-11-19T13:53:28;12.03;;;4.60;;
16177;SDS011;8195;51.220;9.746;2023-11-19T13:57:49;9.93;;;6.00;;
16177;SDS011;8195;51.220;9.746;2023-11-19T14:02:09;13.47;;;4.97;;
16177;SDS011;8195;51.220;9.746;2023-11-19T14:06:29;12.10;;;5.00;;
16177;SDS011;8195;51.220;9.746;2023-11-19T14:10:50;11.53;;;4.60;;
16177;SDS011;8195;51.220;9.746;2023-11-19T14:15:10;12.83;;;5.20;;
16177;SDS011;8195;51.220;9.746;2023-11-19T14:19:30;10.80;;;5.07;;
16177;SDS011;8195;51.220;9.746;2023-11-19T14:23:51;12.17;;;4.60;;
16177;SDS011;8195;51.220;9.746;2023-11-19T14:28:11;11.60;;;4.83;;
16177;SDS011;8195;51.220;9.746;2023-11-19T14:32:32;10.47;;;4.67;;
16177;SDS011;8195;51.220;9.746;2023-11-19T14:36:52;10.77;;;5.10;;
16177;SDS011;8195;51.220;9.746;2023-11-19T14:41:22;13.20;;;5.70;;
16177;SDS011;8195;51.220;9.746;2023-11-19T14:45:55;9.87;;;5.63;;
16177;SDS011;8195;51.220;9.746;2023-11-19T14:50:15;13.13;;;5.47;;
16177;SDS011;8195;51.220;9.746;2023-11-19T14:54:36;11.37;;;5.37;;
16177;SDS011;8195;51.220;9.746;2023-11-19T14:58:56;7.77;;;4.03;;
16177;SDS011;8195;51.220;9.746;2023-11-19T15:03:17;10.53;;;7.30;;
16177;SDS011;8195;51.220;9.746;2023-11-19T15:07:38;14.80;;;7.87;;
16177;SDS011;8195;51.220;9.746;2023-11-19T15:11:59;12.73;;;5.37;;
16177;SDS011;8195;51.220;9.746;2023-11-19T15:16:19;13.07;;;5.43;;
16177;SDS011;8195;51.220;9.746;2023-11-19T15:20:40;10.10;;;5.20;;
16177;SDS011;8195;51.220;9.746;2023-11-19T15:25:00;10.23;;;5.13;;
16177;SDS011;8195;51.220;9.746;2023-11-19T15:29:21;9.87;;;4.73;;
16177;SDS011;8195;51.220;9.746;2023-11-19T15:33:41;9.03;;;4.60;;
16177;SDS011;8195;51.220;9.746;2023-11-19T15:38:02;14.30;;;6.37;;
16177;SDS011;8195;51.220;9.746;2023-11-19T15:42:22;14.07;;;7.20;;
16177;SDS011;8195;51.220;9.746;2023-11-19T15:46:42;14.60;;;5.80;;
16177;SDS011;8195;51.220;9.746;2023-11-19T15:51:03;14.17;;;8.10;;
16177;SDS011;8195;51.220;9.746;2023-11-19T15:55:24;10.40;;;6.83;;
16177;SDS011;8195;51.220;9.746;2023-11-19T15:59:44;12.80;;;5.60;;
16177;SDS011;8195;51.220;9.746;2023-11-19T16:04:40;9.30;;;4.10;;
16177;SDS011;8195;51.220;9.746;2023-11-19T16:14:02;9.90;;;4.10;;
16177;SDS011;8195;51.220;9.746;2023-11-19T16:18:22;11.73;;;4.43;;
16177;SDS011;8195;51.220;9.746;2023-11-19T16:22:43;13.20;;;4.67;;
16177;SDS011;8195;51.220;9.746;2023-11-19T16:27:03;12.43;;;5.47;;
16177;SDS011;8195;51.220;9.746;2023-11-19T16:31:24;8.93;;;4.80;;
16177;SDS011;8195;51.220;9.746;2023-11-19T16:35:45;9.30;;;5.00;;
16177;SDS011;8195;51.220;9.746;2023-11-19T16:40:05;10.13;;;6.33;;
16177;SDS011;8195;51.220;9.746;2023-11-19T16:44:26;11.20;;;4.43;;
16177;SDS011;8195;51.220;9.746;2023-11-19T16:48:47;9.33;;;5.43;;
16177;SDS011;8195;51.220;9.746;2023-11-19T16:53:07;13.37;;;5.40;;
16177;SDS011;8195;51.220;9.746;2023-11-19T16:57:27;10.57;;;5.40;;
16177;SDS011;8195;51.220;9.746;2023-11-19T17:01:48;10.90;;;5.70;;
16177;SDS011;8195;51.220;9.746;2023-11-19T17:06:08;11.17;;;6.03;;
16177;SDS011;8195;51.220;9.746;2023-11-19T17:10:29;8.93;;;7.83;;
16177;SDS011;8195;51.220;9.746;2023-11-19T17:14:49;33.70;;;30.97;;
16177;SDS011;8195;51.220;9.746;2023-11-19T17:19:10;11.90;;;10.67;;
16177;SDS011;8195;51.220;9.746;2023-11-19T17:23:30;12.53;;;7.40;;
16177;SDS011;8195;51.220;9.746;2023-11-19T17:27:50;11.10;;;4.30;;
16177;SDS011;8195;51.220;9.746;2023-11-19T17:32:11;12.53;;;4.70;;
16177;SDS011;8195;51.220;9.746;2023-11-19T17:36:31;9.87;;;4.77;;
16177;SDS011;8195;51.220;9.746;2023-11-19T17:40:51;13.63;;;4.83;;
16177;SDS011;8195;51.220;9.746;2023-11-19T17:45:12;10.53;;;4.53;;
16177;SDS011;8195;51.220;9.746;2023-11-19T17:49:32;12.73;;;4.97;;
16177;SDS011;8195;51.220;9.746;2023-11-19T17:58:46;15.67;;;5.07;;
16177;SDS011;8195;51.220;9.746;2023-11-19T18:03:06;10.13;;;4.50;;
16177;SDS011;8195;51.220;9.746;2023-11-19T18:07:27;10.37;;;4.60;;
16177;SDS011;8195;51.220;9.746;2023-11-19T18:11:47;8.20;;;5.00;;
16177;SDS011;8195;51.220;9.746;2023-11-19T18:16:07;8.60;;;4.27;;
16177;SDS011;8195;51.220;9.746;2023-11-19T18:20:28;9.87;;;4.33;;
16177;SDS011;8195;51.220;9.746;2023-11-19T18:24:48;11.43;;;5.07;;
16177;SDS011;8195;51.220;9.746;2023-11-19T18:29:08;11.00;;;4.37;;
16177;SDS011;8195;51.220;9.746;2023-11-19T18:33:29;9.07;;;4.13;;
16177;SDS011;8195;51.220;9.746;2023-11-19T18:37:49;9.83;;;4.13;;
16177;SDS011;8195;51.220;9.746;2023-11-19T18:42:09;9.77;;;4.10;;
16177;SDS011;8195;51.220;9.746;2023-11-19T18:46:30;9.17;;;3.73;;
16177;SDS011;8195;51.220;9.746;2023-11-19T18:50:50;9.23;;;4.20;;
16177;SDS011;8195;51.220;9.746;2023-11-19T18:55:11;9.47;;;4.20;;
16177;SDS011;8195;51.220;9.746;2023-11-19T18:59:31;10.07;;;3.77;;
16177;SDS011;8195;51.220;9.746;2023-11-19T19:03:51;12.83;;;4.10;;
16177;SDS011;8195;51.220;9.746;2023-11-19T19:08:12;10.87;;;4.10;;
16177;SDS011;8195;51.220;9.746;2023-11-19T19:12:32;8.73;;;3.87;;
16177;SDS011;8195;51.220;9.746;2023-11-19T19:16:52;9.70;;;4.10;;
16177;SDS011;8195;51.220;9.746;2023-11-19T19:21:13;10.47;;;3.80;;
16177;SDS011;8195;51.220;9.746;2023-11-19T19:25:33;12.00;;;4.00;;
16177;SDS011;8195;51.220;9.746;2023-11-19T19:29:53;10.23;;;4.17;;
16177;SDS011;8195;51.220;9.746;2023-11-19T19:34:14;10.93;;;4.30;;
16177;SDS011;8195;51.220;9.746;2023-11-19T19:38:34;11.17;;;4.07;;
16177;SDS011;8195;51.220;9.746;2023-11-19T19:42:54;12.60;;;4.20;;
16177;SDS011;8195;51.220;9.746;2023-11-19T19:47:15;11.13;;;4.00;;
16177;SDS011;8195;51.220;9.746;2023-11-19T19:51:35;15.47;;;4.20;;
16177;SDS011;8195;51.220;9.746;2023-11-19T19:55:55;13.27;;;5.03;;
16177;SDS011;8195;51.220;9.746;2023-11-19T20:00:15;9.03;;;3.97;;
16177;SDS011;8195;51.220;9.746;2023-11-19T20:04:36;15.07;;;4.73;;
16177;SDS011;8195;51.220;9.746;2023-11-19T20:08:56;12.87;;;4.33;;
16177;SDS011;8195;51.220;9.746;2023-11-19T20:13:16;10.70;;;3.93;;
16177;SDS011;8195;51.220;9.746;2023-11-19T20:17:37;10.10;;;3.60;;
16177;SDS011;8195;51.220;9.746;2023-11-19T20:21:57;9.30;;;3.83;;
16177;SDS011;8195;51.220;9.746;2023-11-19T20:26:17;11.77;;;4.63;;
16177;SDS011;8195;51.220;9.746;2023-11-19T20:30:38;12.50;;;4.20;;
16177;SDS011;8195;51.220;9.746;2023-11-19T20:34:58;13.33;;;5.20;;
16177;SDS011;8195;51.220;9.746;2023-11-19T20:39:18;11.87;;;4.03;;
16177;SDS011;8195;51.220;9.746;2023-11-19T20:43:39;12.63;;;4.30;;
16177;SDS011;8195;51.220;9.746;2023-11-19T20:47:59;12.70;;;4.30;;
16177;SDS011;8195;51.220;9.746;2023-11-19T20:52:19;8.13;;;4.23;;
16177;SDS011;8195;51.220;9.746;2023-11-19T20:56:40;12.70;;;4.83;;
16177;SDS011;8195;51.220;9.746;2023-11-19T21:01:00;11.63;;;4.13;;
16177;SDS011;8195;51.220;9.746;2023-11-19T21:05:20;11.87;;;4.63;;
16177;SDS011;8195;51.220;9.746;2023-11-19T21:09:41;9.87;;;3.90;;
16177;SDS011;8195;51.220;9.746;2023-11-19T21:14:01;9.37;;;3.80;;
16177;SDS011;8195;51.220;9.746;2023-11-19T21:18:22;9.40;;;3.90;;
16177;SDS011;8195;51.220;9.746;2023-11-19T21:22:42;11.50;;;4.00;;
16177;SDS011;8195;51.220;9.746;2023-11-19T21:27:02;7.67;;;3.50;;
16177;SDS011;8195;51.220;9.746;2023-11-19T21:31:23;11.17;;;4.33;;
16177;SDS011;8195;51.220;9.746;2023-11-19T21:35:43;8.67;;;3.60;;
16177;SDS011;8195;51.220;9.746;2023-11-19T21:40:04;12.87;;;4.17;;
16177;SDS011;8195;51.220;9.746;2023-11-19T21:44:24;10.77;;;4.03;;
16177;SDS011;8195;51.220;9.746;2023-11-19T21:48:45;8.07;;;3.40;;
16177;SDS011;8195;51.220;9.746;2023-11-19T21:53:05;9.83;;;3.83;;
16177;SDS011;8195;51.220;9.746;2023-11-19T21:57:25;14.13;;;3.73;;
16177;SDS011;8195;51.220;9.746;2023-11-19T22:01:46;7.10;;;3.53;;
16177;SDS011;8195;51.220;9.746;2023-11-19T22:06:06;10.13;;;3.00;;
16177;SDS011;8195;51.220;9.746;2023-11-19T22:10:26;8.77;;;3.70;;
16177;SDS011;8195;51.220;9.746;2023-11-19T22:14:47;8.47;;;3.70;;
16177;SDS011;8195;51.220;9.746;2023-11-19T22:19:07;9.13;;;3.60;;
16177;SDS011;8195;51.220;9.746;2023-11-19T22:23:28;10.13;;;4.13;;
16177;SDS011;8195;51.220;9.746;2023-11-19T22:27:48;7.90;;;3.57;;
16177;SDS011;8195;51.220;9.746;2023-11-19T22:32:08;11.40;;;3.77;;
16177;SDS011;8195;51.220;9.746;2023-11-19T22:36:29;6.80;;;3.63;;
16177;SDS011;8195;51.220;9.746;2023-11-19T22:40:49;11.57;;;3.67;;
16177;SDS011;8195;51.220;9.746;2023-11-19T22:45:10;9.90;;;4.13;;
16177;SDS011;8195;51.220;9.746;2023-11-19T22:49:30;9.47;;;3.77;;
16177;SDS011;8195;51.220;9.746;2023-11-19T22:53:50;9.10;;;4.10;;
16177;SDS011;8195;51.220;9.746;2023-11-19T22:58:11;6.07;;;3.23;;
16177;SDS011;8195;51.220;9.746;2023-11-19T23:02:31;7.67;;;3.40;;
16177;SDS011;8195;51.220;9.746;2023-11-19T23:06:51;10.67;;;4.73;;
16177;SDS011;8195;51.220;9.746;2023-11-19T23:11:12;9.00;;;3.63;;
16177;SDS011;8195;51.220;9.746;2023-11-19T23:15:32;10.57;;;3.87;;
16177;SDS011;8195;51.220;9.746;2023-11-19T23:19:52;7.77;;;3.53;;
16177;SDS011;8195;51.220;9.746;2023-11-19T23:24:12;10.53;;;3.90;;
16177;SDS011;8195;51.220;9.746;2023-11-19T23:28:33;9.87;;;4.20;;
16177;SDS011;8195;51.220;9.746;2023-11-19T23:32:53;10.77;;;4.13;;
16177;SDS011;8195;51.220;9.746;2023-11-19T23:37:13;9.50;;;3.67;;
16177;SDS011;8195;51.220;9.746;2023-11-19T23:41:34;6.53;;;3.40;;
16177;SDS011;8195;51.220;9.746;2023-11-19T23:45:54;6.60;;;3.13;;
16177;SDS011;8195;51.220;9.746;2023-11-19T23:50:14;8.97;;;3.17;;
16177;SDS011;8195;51.220;9.746;2023-11-19T23:54:35;8.00;;;3.93;;
16177;SDS011;8195;51.220;9.746;2023-11-19T23:58:55;6.87;;;3.20;;
